Capitol Logistics 1136


LEMD
Adolfo Suárez Madrid-Barajas International Airport
Madrid, ES
EBLG
Liège Airport
Liege, BE

Activity Log

Date Flight Route Aircraft Duration
11/03/2019 CPX736 Not Available B738 2h 10m

Route Details

Aircraft Information
Primary: Boeing 737-800BCF
Backup: Not Available
Route Data
Distance: 716nm
Sched. Duration: 1h 44m
Avg. Duration: 2h 10m (+66m)
Times Flown: 1
Recm'd Route: Not Available
Planned Altitude: 33,000ft
Origin Wx: LEMD 061200Z VRB04KT CAVOK 36/12 Q1018 NOSIG
Dest. Wx: EBLG 061150Z 31007KT 270V340 9999 SCT043 16/09 Q1018 NOSIG
Notes:

Financial History
Total Freight: 39,600lbs
Average Load: 39,600lbs/flt
Fuel Used: 11,486lbs
Avg. Fuel Used: 11,486lbs/flt
Fuel Expense: $9,189
Avg. Fuel Expense: $9,189
Avg. Fuel Cost: $0.80/lbs
Total Gross Income: $79,200
Pilot Pay: $229
Total Expenses: $8,606
Total Revenue: $60,884
Average Revenue: $79,200.00